Terminal Aerodrome Forecast
Issued by NWS Grand Forks, ND

Home | Current Version | Previous Version | Graphics & Text | Print | Product List | Glossary On
Versions: 1 2 3 4 5 6 7 8 9 10 11 12 13 14
000
FTUS43 KFGF 242300
TAFGFK
TAF
KGFK 242320Z 2500/2524 12011KT P6SM OVC035
     FM250200 10010KT P6SM OVC025
     FM250600 05008KT P6SM OVC015=

USA.gov is the U.S. government's official web portal to all federal, state and local government web resources and services.